createdAt,value
2024-02-28T00:00:00.282Z,50.38
2024-02-28T00:01:00.408Z,50.00
2024-02-28T00:02:00.385Z,50.02
2024-02-28T00:03:00.415Z,50.56
2024-02-28T00:04:00.477Z,50.32
2024-02-28T00:05:00.578Z,50.53
2024-02-28T00:06:00.634Z,50.13
2024-02-28T00:07:00.666Z,51.02
2024-02-28T00:08:00.771Z,50.25
2024-02-28T00:09:00.825Z,50.58
2024-02-28T00:10:00.942Z,50.17
2024-02-28T00:11:01.366Z,50.00
2024-02-28T00:12:01.042Z,50.46
2024-02-28T00:13:01.282Z,50.10
2024-02-28T00:14:01.210Z,50.00
2024-02-28T00:15:01.267Z,50.00
2024-02-28T00:16:01.388Z,50.38
2024-02-28T00:17:01.387Z,51.30
2024-02-28T00:18:01.529Z,50.14
2024-02-28T00:19:01.619Z,50.54
2024-02-28T00:20:01.609Z,50.24
2024-02-28T00:21:01.726Z,50.00
2024-02-28T00:22:01.780Z,50.51
2024-02-28T00:23:01.785Z,50.49
2024-02-28T00:24:01.847Z,50.00
2024-02-28T00:25:01.912Z,50.51
2024-02-28T00:26:02.389Z,50.26
2024-02-28T00:27:02.022Z,50.17
2024-02-28T00:28:02.081Z,50.40
2024-02-28T00:29:02.202Z,50.32
2024-02-28T00:30:02.200Z,50.21
2024-02-28T00:31:02.256Z,50.54
2024-02-28T00:32:02.367Z,50.74
2024-02-28T00:33:02.449Z,50.10
2024-02-28T00:34:02.490Z,50.62
2024-02-28T00:35:02.548Z,50.07
2024-02-28T00:36:02.578Z,50.44
2024-02-28T00:37:02.761Z,50.39
2024-02-28T00:38:02.710Z,50.26
2024-02-28T00:39:02.750Z,50.24
2024-02-28T00:40:02.733Z,50.53
2024-02-28T00:41:02.752Z,51.23
2024-02-28T00:42:02.771Z,50.93
2024-02-28T00:43:02.805Z,50.66
2024-02-28T00:44:02.775Z,50.38
2024-02-28T00:45:02.827Z,50.23
2024-02-28T00:46:02.831Z,51.53
2024-02-28T00:47:02.895Z,50.91
2024-02-28T00:48:02.984Z,49.98
2024-02-28T00:49:02.962Z,50.65
2024-02-28T00:50:02.960Z,50.37
2024-02-28T00:51:02.987Z,50.00
2024-02-28T00:52:03.071Z,51.03
2024-02-28T00:53:03.088Z,50.00
2024-02-28T00:54:03.161Z,50.47
2024-02-28T00:55:03.163Z,50.87
2024-02-28T00:56:03.223Z,50.63
2024-02-28T00:57:03.203Z,50.71
2024-02-28T00:58:03.225Z,50.89
2024-02-28T00:59:03.278Z,50.79
2024-02-28T01:00:03.293Z,50.94
2024-02-28T01:01:03.418Z,50.35
2024-02-28T01:02:03.354Z,50.38
2024-02-28T01:03:03.359Z,50.50
2024-02-28T01:04:03.464Z,50.41
2024-02-28T01:05:03.495Z,50.26
2024-02-28T01:06:03.452Z,51.42
2024-02-28T01:07:03.481Z,50.98
2024-02-28T01:08:03.484Z,50.00
2024-02-28T01:09:05.188Z,50.23
2024-02-28T01:10:03.580Z,50.83
2024-02-28T01:11:03.946Z,50.69
2024-02-28T01:12:03.616Z,50.51
2024-02-28T01:13:03.602Z,50.00
2024-02-28T01:14:03.607Z,50.91
2024-02-28T01:15:03.616Z,51.29
2024-02-28T01:16:03.612Z,50.56
2024-02-28T01:17:03.606Z,50.65
2024-02-28T01:18:03.694Z,50.32
2024-02-28T01:19:03.609Z,50.29
2024-02-28T01:20:03.639Z,50.55
2024-02-28T01:21:03.612Z,50.17
2024-02-28T01:22:03.657Z,50.60
2024-02-28T01:23:03.627Z,50.28
2024-02-28T01:24:03.638Z,50.20
2024-02-28T01:25:03.676Z,51.16
2024-02-28T01:26:03.690Z,50.74
2024-02-28T01:27:03.623Z,50.77
2024-02-28T01:28:03.659Z,51.25
2024-02-28T01:29:03.637Z,51.23
2024-02-28T01:30:03.663Z,50.00
2024-02-28T01:31:03.855Z,50.15
2024-02-28T01:32:03.688Z,50.11
2024-02-28T01:33:03.781Z,51.13
2024-02-28T01:34:03.795Z,51.05
2024-02-28T01:35:03.835Z,51.18
2024-02-28T01:36:03.684Z,50.96
2024-02-28T01:37:03.727Z,50.64
2024-02-28T01:38:03.730Z,50.84
2024-02-28T01:39:03.707Z,50.29
2024-02-28T01:40:03.761Z,50.51
2024-02-28T01:41:03.788Z,50.46
2024-02-28T01:42:03.800Z,51.43
2024-02-28T01:43:03.805Z,51.27
2024-02-28T01:44:03.785Z,50.23
2024-02-28T01:45:03.822Z,50.29
2024-02-28T01:46:03.827Z,50.86
2024-02-28T01:47:03.831Z,51.03
2024-02-28T01:48:03.937Z,50.31
2024-02-28T01:49:03.897Z,50.86
2024-02-28T01:50:03.815Z,50.11
2024-02-28T01:51:03.884Z,50.57
2024-02-28T01:52:03.864Z,50.44
2024-02-28T01:53:03.842Z,50.13
2024-02-28T01:54:03.852Z,51.25
2024-02-28T01:55:03.907Z,50.61
2024-02-28T01:56:03.908Z,51.57
2024-02-28T01:57:03.896Z,50.83
2024-02-28T01:58:03.904Z,50.68
2024-02-28T01:59:03.951Z,50.80
2024-02-28T02:00:03.946Z,51.17
2024-02-28T02:01:04.244Z,50.00
2024-02-28T02:02:04.026Z,51.30
2024-02-28T02:03:03.992Z,51.00
2024-02-28T02:04:03.980Z,50.27
2024-02-28T02:05:04.038Z,50.45
2024-02-28T02:06:04.054Z,50.70
2024-02-28T02:07:04.066Z,50.94
2024-02-28T02:08:04.118Z,51.19
2024-02-28T02:09:04.832Z,51.00
2024-02-28T02:10:04.126Z,51.23
2024-02-28T02:11:04.163Z,51.11
2024-02-28T02:12:04.131Z,50.26
2024-02-28T02:13:04.168Z,51.00
2024-02-28T02:14:04.183Z,51.44
2024-02-28T02:15:04.200Z,51.31
2024-02-28T02:16:04.306Z,50.96
2024-02-28T02:17:04.284Z,50.13
2024-02-28T02:18:04.493Z,50.01
2024-02-28T02:19:04.417Z,50.16
2024-02-28T02:20:04.323Z,50.80
2024-02-28T02:21:04.404Z,50.47
2024-02-28T02:22:04.404Z,51.63
2024-02-28T02:23:04.359Z,51.54
2024-02-28T02:24:04.404Z,50.85
2024-02-28T02:25:04.404Z,51.64
2024-02-28T02:26:04.889Z,51.02
2024-02-28T02:27:04.439Z,51.18
2024-02-28T02:28:04.463Z,51.05
2024-02-28T02:29:04.486Z,51.27
2024-02-28T02:30:04.554Z,51.03
2024-02-28T02:31:04.555Z,51.25
2024-02-28T02:32:04.613Z,51.62
2024-02-28T02:33:04.589Z,51.12
2024-02-28T02:34:04.656Z,51.13
2024-02-28T02:35:04.623Z,50.99
2024-02-28T02:36:04.682Z,51.03
2024-02-28T02:37:04.700Z,50.99
2024-02-28T02:38:04.713Z,50.52
2024-02-28T02:39:04.743Z,50.48
2024-02-28T02:40:04.753Z,51.06
2024-02-28T02:41:04.820Z,50.49
2024-02-28T02:42:04.848Z,51.09
2024-02-28T02:43:04.897Z,50.72
2024-02-28T02:44:04.878Z,50.97
2024-02-28T02:45:04.904Z,51.28
2024-02-28T02:46:04.922Z,51.24
2024-02-28T02:47:04.951Z,51.86
2024-02-28T02:48:05.040Z,51.07
2024-02-28T02:49:05.034Z,51.51
2024-02-28T02:50:05.074Z,50.81
2024-02-28T02:51:05.053Z,50.15
2024-02-28T02:52:05.073Z,50.82
2024-02-28T02:53:05.102Z,51.03
2024-02-28T02:54:05.154Z,50.82
2024-02-28T02:55:05.132Z,51.06
2024-02-28T02:56:05.145Z,50.58
2024-02-28T02:57:05.170Z,51.03
2024-02-28T02:58:05.244Z,50.29
2024-02-28T02:59:05.228Z,50.00
2024-02-28T03:00:05.272Z,50.63
2024-02-28T03:01:05.398Z,51.09
2024-02-28T03:02:05.316Z,50.96
2024-02-28T03:03:05.342Z,50.56
2024-02-28T03:04:05.353Z,50.32
2024-02-28T03:05:05.415Z,50.80
2024-02-28T03:06:05.900Z,50.16
2024-02-28T03:07:05.457Z,51.05
2024-02-28T03:08:05.468Z,50.92
2024-02-28T03:09:05.492Z,51.53
2024-02-28T03:10:05.551Z,50.43
2024-02-28T03:11:05.756Z,50.88
2024-02-28T03:12:05.644Z,50.78
2024-02-28T03:13:05.640Z,50.62
2024-02-28T03:14:05.703Z,50.65
2024-02-28T03:15:05.696Z,50.77
2024-02-28T03:16:05.942Z,50.61
2024-02-28T03:17:05.759Z,50.64
2024-02-28T03:18:05.808Z,50.78
2024-02-28T03:19:05.846Z,50.33
2024-02-28T03:20:05.828Z,50.08
2024-02-28T03:21:05.853Z,50.95
2024-02-28T03:22:05.917Z,50.41
2024-02-28T03:23:05.949Z,50.78
2024-02-28T03:24:05.921Z,50.26
2024-02-28T03:25:06.012Z,50.44
2024-02-28T03:26:06.406Z,50.67
2024-02-28T03:27:06.032Z,50.00
2024-02-28T03:28:06.064Z,50.30
2024-02-28T03:29:06.098Z,50.69
2024-02-28T03:30:06.130Z,50.91
2024-02-28T03:31:06.161Z,50.63
2024-02-28T03:32:06.194Z,50.66
2024-02-28T03:33:06.304Z,51.95
2024-02-28T03:34:06.285Z,50.45
2024-02-28T03:35:06.258Z,50.13
2024-02-28T03:36:06.354Z,50.46
2024-02-28T03:37:06.374Z,50.32
2024-02-28T03:38:06.355Z,50.69
2024-02-28T03:39:06.425Z,50.04
2024-02-28T03:40:06.436Z,50.62
2024-02-28T03:41:06.493Z,50.50
2024-02-28T03:42:06.494Z,50.76
2024-02-28T03:43:06.527Z,50.79
2024-02-28T03:44:06.549Z,50.89
2024-02-28T03:45:06.578Z,50.73
2024-02-28T03:46:06.624Z,50.45
2024-02-28T03:47:06.660Z,50.72
2024-02-28T03:48:06.733Z,50.74
2024-02-28T03:49:06.772Z,50.94
2024-02-28T03:50:06.775Z,50.37
2024-02-28T03:51:06.756Z,50.24
2024-02-28T03:52:06.815Z,50.32
2024-02-28T03:53:06.853Z,51.18
2024-02-28T03:54:06.902Z,50.72
2024-02-28T03:55:06.957Z,50.66
2024-02-28T03:56:06.989Z,51.06
2024-02-28T03:57:07.019Z,50.87
2024-02-28T03:58:07.074Z,51.44
2024-02-28T03:59:07.130Z,50.92
2024-02-28T04:00:07.138Z,50.91
2024-02-28T04:01:07.468Z,51.64
2024-02-28T04:02:07.219Z,51.17
2024-02-28T04:03:07.261Z,51.07
2024-02-28T04:04:07.334Z,51.01
2024-02-28T04:05:07.322Z,51.01
2024-02-28T04:06:07.383Z,50.78
2024-02-28T04:07:07.452Z,51.02
2024-02-28T04:08:07.453Z,50.75
2024-02-28T04:09:07.514Z,50.90
2024-02-28T04:10:07.534Z,51.20
2024-02-28T04:11:07.579Z,50.94
2024-02-28T04:12:07.642Z,51.42
2024-02-28T04:13:07.751Z,51.23
2024-02-28T04:14:07.699Z,51.41
2024-02-28T04:15:07.712Z,51.35
2024-02-28T04:16:08.028Z,51.60
2024-02-28T04:17:07.783Z,50.22
2024-02-28T04:18:07.900Z,50.88
2024-02-28T04:19:07.882Z,51.43
2024-02-28T04:20:07.910Z,51.23
2024-02-28T04:21:07.951Z,51.30
2024-02-28T04:22:07.967Z,50.92
2024-02-28T04:23:08.015Z,51.43
2024-02-28T04:24:08.141Z,51.61
2024-02-28T04:25:08.208Z,50.42
2024-02-28T04:26:08.173Z,51.01
2024-02-28T04:27:08.267Z,51.35
2024-02-28T04:28:08.258Z,50.93
2024-02-28T04:29:08.303Z,51.67
2024-02-28T04:30:08.355Z,50.59
2024-02-28T04:31:08.398Z,51.61
2024-02-28T04:32:15.654Z,50.00
2024-02-28T04:33:15.723Z,50.00
2024-02-28T04:34:15.692Z,50.00
2024-02-28T04:35:15.668Z,50.00
2024-02-28T04:36:15.710Z,50.00
2024-02-28T04:37:15.638Z,51.73
2024-02-28T04:38:15.665Z,52.17
2024-02-28T04:39:15.676Z,51.23
2024-02-28T04:40:15.658Z,51.71
2024-02-28T04:41:18.001Z,52.73
2024-02-28T04:42:15.897Z,53.32
2024-02-28T04:43:15.935Z,53.16
2024-02-28T04:44:15.955Z,51.58
2024-02-28T04:45:16.012Z,50.90
2024-02-28T04:46:16.306Z,52.45
2024-02-28T04:48:16.250Z,51.37
2024-02-28T04:49:16.236Z,50.13
2024-02-28T04:50:16.256Z,50.83
2024-02-28T04:51:16.427Z,50.15
2024-02-28T04:52:16.390Z,51.00
2024-02-28T04:53:16.433Z,51.74
2024-02-28T04:54:17.293Z,51.54
2024-02-28T04:55:16.494Z,50.49
2024-02-28T04:56:16.544Z,51.97
2024-02-28T04:57:16.622Z,51.86
2024-02-28T04:58:16.639Z,53.49
2024-02-28T04:59:16.685Z,53.13
2024-02-28T05:00:16.797Z,52.65
2024-02-28T05:01:18.875Z,51.30
2024-02-28T05:02:16.785Z,51.45
2024-02-28T05:03:16.848Z,51.60
2024-02-28T05:04:16.821Z,52.14
2024-02-28T05:05:16.820Z,52.01
2024-02-28T05:06:16.851Z,52.26
2024-02-28T05:07:16.793Z,53.24
2024-02-28T05:08:16.793Z,52.70
2024-02-28T05:09:16.875Z,53.09
2024-02-28T05:10:16.980Z,52.61
2024-02-28T05:11:16.851Z,52.57
2024-02-28T05:12:16.851Z,52.12
2024-02-28T05:13:16.806Z,51.63
2024-02-28T05:14:16.821Z,52.31
2024-02-28T05:15:16.853Z,52.56
2024-02-28T05:16:16.805Z,51.30
2024-02-28T05:17:16.814Z,52.23
2024-02-28T05:18:16.850Z,52.79
2024-02-28T05:19:16.787Z,54.28
2024-02-28T05:20:16.806Z,54.04
2024-02-28T05:21:17.317Z,53.21
2024-02-28T05:22:16.819Z,56.78
2024-02-28T05:23:16.804Z,53.27
2024-02-28T05:24:16.855Z,53.05
2024-02-28T05:25:16.795Z,54.52
2024-02-28T05:26:16.822Z,56.81
2024-02-28T05:27:16.881Z,55.81
2024-02-28T05:28:16.927Z,57.38
2024-02-28T05:29:16.856Z,58.28
2024-02-28T05:30:16.912Z,57.86
2024-02-28T05:31:16.864Z,57.55
2024-02-28T05:32:16.842Z,58.67
2024-02-28T05:33:16.859Z,60.04
2024-02-28T05:34:16.808Z,59.81
2024-02-28T05:35:16.874Z,58.79
2024-02-28T05:36:17.036Z,59.90
2024-02-28T05:37:16.975Z,57.80
2024-02-28T05:38:17.000Z,60.20
2024-02-28T05:39:17.105Z,60.18
2024-02-28T05:40:17.097Z,59.92
2024-02-28T05:41:17.206Z,60.11
2024-02-28T05:42:17.200Z,62.49
2024-02-28T05:43:17.192Z,62.33
2024-02-28T05:44:17.258Z,63.27
2024-02-28T05:45:17.327Z,64.50
2024-02-28T05:46:17.325Z,65.76
2024-02-28T05:47:17.362Z,66.46
2024-02-28T05:48:17.415Z,67.08
2024-02-28T05:49:17.446Z,67.83
2024-02-28T05:50:17.435Z,68.50
2024-02-28T05:51:17.498Z,71.11
2024-02-28T05:52:17.514Z,68.93
2024-02-28T05:53:17.529Z,69.71
2024-02-28T05:54:17.591Z,71.80
2024-02-28T05:55:17.557Z,71.56
2024-02-28T05:56:17.598Z,70.57
2024-02-28T05:57:17.622Z,71.59
2024-02-28T05:58:17.625Z,72.74
2024-02-28T05:59:17.664Z,73.96
2024-02-28T06:00:17.709Z,73.19
2024-02-28T06:01:17.819Z,72.86
2024-02-28T06:02:17.702Z,74.41
2024-02-28T06:03:17.765Z,73.90
2024-02-28T06:04:17.728Z,74.38
2024-02-28T06:05:17.750Z,75.62
2024-02-28T06:06:17.820Z,76.43
2024-02-28T06:07:17.755Z,75.77
2024-02-28T06:08:17.786Z,76.22
2024-02-28T06:09:17.801Z,76.45
2024-02-28T06:10:17.854Z,76.54
2024-02-28T06:11:18.359Z,76.70
2024-02-28T06:12:17.882Z,78.74
2024-02-28T06:13:17.877Z,78.02
2024-02-28T06:14:17.881Z,77.83
2024-02-28T06:15:17.886Z,79.59
2024-02-28T06:16:17.927Z,77.73
2024-02-28T06:17:17.939Z,79.69
2024-02-28T06:18:18.004Z,80.26
2024-02-28T06:19:17.952Z,82.09
2024-02-28T06:20:17.966Z,79.57
2024-02-28T06:21:18.344Z,81.04
2024-02-28T06:22:17.988Z,82.57
2024-02-28T06:23:23.810Z,82.09
2024-02-28T06:24:19.066Z,82.25
2024-02-28T06:25:17.992Z,82.56
2024-02-28T06:26:18.559Z,83.43
2024-02-28T06:27:18.020Z,82.28
2024-02-28T06:28:18.013Z,85.42
2024-02-28T06:29:18.040Z,85.51
2024-02-28T06:30:18.150Z,84.60
2024-02-28T06:31:18.006Z,84.93
2024-02-28T06:32:18.004Z,84.10
2024-02-28T06:33:18.063Z,85.27
2024-02-28T06:34:18.033Z,85.08
2024-02-28T06:35:18.001Z,86.92
2024-02-28T06:36:18.056Z,86.07
2024-02-28T06:37:18.020Z,87.09
2024-02-28T06:38:18.013Z,87.08
2024-02-28T06:39:18.049Z,88.07
2024-02-28T06:40:18.066Z,87.48
2024-02-28T06:41:18.071Z,86.99
2024-02-28T06:42:18.064Z,88.07
2024-02-28T06:43:18.051Z,89.26
2024-02-28T06:44:18.012Z,88.31
2024-02-28T06:45:18.072Z,90.28
2024-02-28T06:46:18.055Z,88.41
2024-02-28T06:47:18.082Z,90.49
2024-02-28T06:48:18.021Z,90.50
2024-02-28T06:49:18.012Z,89.28
2024-02-28T06:50:18.033Z,87.64
2024-02-28T06:51:18.319Z,88.28
2024-02-28T06:52:18.011Z,89.64
2024-02-28T06:53:18.032Z,88.54
2024-02-28T06:54:18.079Z,90.11
2024-02-28T06:55:18.032Z,90.64
2024-02-28T06:56:18.023Z,90.33
2024-02-28T06:57:18.344Z,90.73
2024-02-28T06:58:18.044Z,91.82
2024-02-28T06:59:18.048Z,91.60
2024-02-28T07:00:18.093Z,92.63
2024-02-28T07:01:18.122Z,92.58
2024-02-28T07:02:18.325Z,93.88
2024-02-28T07:03:18.113Z,94.46
2024-02-28T07:04:18.072Z,93.15
2024-02-28T07:05:18.084Z,94.20
2024-02-28T07:06:18.082Z,94.78
2024-02-28T07:07:18.347Z,94.44
2024-02-28T07:08:19.067Z,96.93
2024-02-28T07:09:18.131Z,95.75
2024-02-28T07:10:18.181Z,97.82
2024-02-28T07:11:18.211Z,96.95
2024-02-28T07:12:18.283Z,97.26
2024-02-28T07:13:18.352Z,97.49
2024-02-28T07:14:19.820Z,97.34
2024-02-28T07:15:18.434Z,97.58
2024-02-28T07:16:18.515Z,97.86
2024-02-28T07:17:18.485Z,98.88
2024-02-28T07:18:18.608Z,98.30
2024-02-28T07:19:18.608Z,98.00
2024-02-28T07:20:18.663Z,99.84
2024-02-28T07:21:18.842Z,97.29
2024-02-28T07:22:18.797Z,98.61
2024-02-28T07:23:18.788Z,99.71
2024-02-28T07:24:18.953Z,98.97
2024-02-28T07:25:23.519Z,97.60
2024-02-28T07:26:26.579Z,97.80
2024-02-28T07:27:19.988Z,97.93
2024-02-28T07:28:18.906Z,98.79
2024-02-28T07:29:18.983Z,99.38
2024-02-28T07:30:19.020Z,100.52
2024-02-28T07:31:19.086Z,100.59
2024-02-28T07:32:19.143Z,103.60
2024-02-28T07:33:19.420Z,102.20
2024-02-28T07:34:19.359Z,102.50
2024-02-28T07:35:19.335Z,102.37
2024-02-28T07:36:19.383Z,101.68
2024-02-28T07:37:19.440Z,101.53
2024-02-28T07:38:19.530Z,102.45
2024-02-28T07:39:19.623Z,100.37
2024-02-28T07:40:19.681Z,100.12
2024-02-28T07:41:19.814Z,104.24
2024-02-28T07:42:19.796Z,103.26
2024-02-28T07:43:19.893Z,102.94
2024-02-28T07:44:19.927Z,101.50
2024-02-28T07:45:20.048Z,102.20
2024-02-28T07:46:20.327Z,101.43
2024-02-28T07:47:20.132Z,102.90
2024-02-28T07:48:20.218Z,102.45
2024-02-28T07:49:20.309Z,101.29
2024-02-28T07:50:20.316Z,100.80
2024-02-28T07:51:20.931Z,99.96
2024-02-28T07:52:20.487Z,102.12
2024-02-28T07:53:20.543Z,101.64
2024-02-28T07:54:20.611Z,98.38
2024-02-28T07:55:20.713Z,90.64
2024-02-28T07:56:20.673Z,81.35
2024-02-28T07:57:20.731Z,75.00
2024-02-28T07:58:20.725Z,71.54
2024-02-28T07:59:20.726Z,68.19
2024-02-28T08:00:20.761Z,67.25
2024-02-28T08:01:20.784Z,64.75
2024-02-28T08:02:20.925Z,68.07
2024-02-28T08:03:20.806Z,67.44
2024-02-28T08:04:20.778Z,67.93
2024-02-28T08:05:20.792Z,64.95
2024-02-28T08:06:20.854Z,64.78
2024-02-28T08:07:20.824Z,65.86
2024-02-28T08:08:20.835Z,70.25
2024-02-28T08:09:20.893Z,74.33
2024-02-28T08:10:20.848Z,79.19
2024-02-28T08:11:20.944Z,83.08
2024-02-28T08:12:21.413Z,86.64
2024-02-28T08:13:20.932Z,89.02
2024-02-28T08:14:21.010Z,92.37
2024-02-28T08:15:21.137Z,94.07
2024-02-28T08:16:21.132Z,95.20
2024-02-28T08:17:21.228Z,99.82
2024-02-28T08:18:21.388Z,102.12
2024-02-28T08:19:21.343Z,105.02
2024-02-28T08:20:21.441Z,104.08
2024-02-28T08:21:21.500Z,106.54
2024-02-28T08:22:21.851Z,108.21
2024-02-28T08:23:21.579Z,107.34
2024-02-28T08:24:21.727Z,109.10
2024-02-28T08:25:21.663Z,110.92
2024-02-28T08:26:21.753Z,110.40
2024-02-28T08:27:21.876Z,114.88
2024-02-28T08:28:21.859Z,113.32
2024-02-28T08:29:21.900Z,113.02
2024-02-28T08:30:21.976Z,117.57
2024-02-28T08:31:22.009Z,117.60
2024-02-28T08:32:22.045Z,119.21
2024-02-28T08:33:24.845Z,119.66
2024-02-28T08:34:22.240Z,121.94
2024-02-28T08:35:22.107Z,120.22
2024-02-28T08:36:22.146Z,122.50
2024-02-28T08:37:22.074Z,123.62
2024-02-28T08:38:22.102Z,123.87
2024-02-28T08:39:22.109Z,124.51
2024-02-28T08:40:22.104Z,124.49
2024-02-28T08:41:22.096Z,125.47
2024-02-28T08:42:22.140Z,130.12
2024-02-28T08:43:22.083Z,127.79
2024-02-28T08:44:22.064Z,129.47
2024-02-28T08:45:22.222Z,127.01
2024-02-28T08:46:22.112Z,125.78
2024-02-28T08:47:22.082Z,128.87
2024-02-28T08:48:22.117Z,130.93
2024-02-28T08:49:22.107Z,128.64
2024-02-28T08:50:22.103Z,124.87
2024-02-28T08:51:22.151Z,125.08
2024-02-28T08:52:22.128Z,122.37
2024-02-28T08:53:22.138Z,122.10
2024-02-28T08:54:22.124Z,122.16
2024-02-28T08:55:22.124Z,126.08
2024-02-28T08:56:22.121Z,125.75
2024-02-28T08:57:22.122Z,126.17
2024-02-28T08:58:22.103Z,128.26
2024-02-28T08:59:22.107Z,125.70
2024-02-28T09:00:22.132Z,125.77
2024-02-28T09:01:22.197Z,127.37
2024-02-28T09:02:22.121Z,128.68
2024-02-28T09:03:22.167Z,130.31
2024-02-28T09:04:22.095Z,130.01
2024-02-28T09:05:22.121Z,130.50
2024-02-28T09:06:22.163Z,132.83
2024-02-28T09:07:22.093Z,135.00
2024-02-28T09:08:22.138Z,134.78
2024-02-28T09:09:22.137Z,136.72
2024-02-28T09:10:22.157Z,133.86
2024-02-28T09:11:22.158Z,138.63
2024-02-28T09:12:22.186Z,139.96
2024-02-28T09:13:22.124Z,141.27
2024-02-28T09:14:22.148Z,142.07
2024-02-28T09:15:22.150Z,142.66
2024-02-28T09:16:22.239Z,144.77
2024-02-28T09:17:22.153Z,145.09
2024-02-28T09:18:22.183Z,145.90
2024-02-28T09:19:22.169Z,145.72
2024-02-28T09:20:22.157Z,146.21
2024-02-28T09:21:22.161Z,146.84
2024-02-28T09:22:22.442Z,146.68
2024-02-28T09:23:22.168Z,147.19
2024-02-28T09:24:22.226Z,146.59
2024-02-28T09:26:22.128Z,148.58
2024-02-28T09:27:22.211Z,147.27
2024-02-28T09:28:22.177Z,149.48
2024-02-28T09:29:22.182Z,149.18
2024-02-28T09:30:22.208Z,149.73
2024-02-28T09:31:22.218Z,151.97
2024-02-28T09:32:22.150Z,153.19
2024-02-28T09:33:22.197Z,151.86
2024-02-28T09:34:22.180Z,154.91
2024-02-28T09:35:22.180Z,154.47
2024-02-28T09:36:22.183Z,155.19
2024-02-28T09:37:22.203Z,156.06
2024-02-28T09:38:22.149Z,153.84
2024-02-28T09:39:22.191Z,157.11
2024-02-28T09:40:22.161Z,158.91
2024-02-28T09:41:22.176Z,160.14
2024-02-28T09:42:22.370Z,162.27
2024-02-28T09:43:22.231Z,159.25
2024-02-28T09:44:22.145Z,161.64
2024-02-28T09:45:22.234Z,161.22
2024-02-28T09:46:22.203Z,162.89
2024-02-28T09:47:22.165Z,165.99
2024-02-28T09:48:22.219Z,169.73
2024-02-28T09:49:22.174Z,168.65
2024-02-28T09:50:22.177Z,171.64
2024-02-28T09:51:22.252Z,175.75
2024-02-28T09:52:22.373Z,182.75
2024-02-28T09:53:22.205Z,183.74
2024-02-28T09:54:22.243Z,181.00
2024-02-28T09:55:22.184Z,177.99
2024-02-28T09:56:22.224Z,182.64
2024-02-28T09:57:22.235Z,182.36
2024-02-28T09:58:22.196Z,183.19
2024-02-28T09:59:25.046Z,185.68
2024-02-28T10:00:23.253Z,185.88
2024-02-28T10:01:22.344Z,186.00
2024-02-28T10:02:22.204Z,186.69
2024-02-28T10:03:22.250Z,187.47
2024-02-28T10:04:22.229Z,189.66
2024-02-28T10:05:22.240Z,190.03
2024-02-28T10:06:22.292Z,189.30
2024-02-28T10:07:22.368Z,190.52
2024-02-28T10:08:22.216Z,188.93
2024-02-28T10:09:22.322Z,190.74
2024-02-28T10:10:22.284Z,191.92
2024-02-28T10:11:22.402Z,190.52
2024-02-28T10:12:22.425Z,192.71
2024-02-28T10:13:22.473Z,190.83
2024-02-28T10:14:22.537Z,188.98
2024-02-28T10:15:22.565Z,189.87
2024-02-28T10:16:22.483Z,191.32
2024-02-28T10:17:22.894Z,189.28
2024-02-28T10:18:22.692Z,188.08
2024-02-28T10:19:22.546Z,188.46
2024-02-28T10:20:22.613Z,188.34
2024-02-28T10:21:22.591Z,187.35
2024-02-28T10:22:22.920Z,189.54
2024-02-28T10:23:22.617Z,189.21
2024-02-28T10:24:22.742Z,182.78
2024-02-28T10:25:22.680Z,182.51
2024-02-28T10:26:22.694Z,182.66
2024-02-28T10:27:22.839Z,183.75
2024-02-28T10:28:22.714Z,181.28
2024-02-28T10:29:22.719Z,182.09
2024-02-28T10:30:22.780Z,181.16
2024-02-28T10:31:22.776Z,180.82
2024-02-28T10:32:22.800Z,179.29
2024-02-28T10:33:22.920Z,177.31
2024-02-28T10:34:22.842Z,176.12
2024-02-28T10:35:22.876Z,176.55
2024-02-28T10:36:22.962Z,175.07
2024-02-28T10:37:22.926Z,176.55
2024-02-28T10:38:22.949Z,174.14
2024-02-28T10:39:23.004Z,175.06
2024-02-28T10:40:23.123Z,172.55
2024-02-28T10:41:23.001Z,172.36
2024-02-28T10:42:23.043Z,173.19
2024-02-28T10:43:23.119Z,173.75
2024-02-28T10:44:23.107Z,172.28
2024-02-28T10:45:34.421Z,173.20
2024-02-28T10:46:35.422Z,173.39
2024-02-28T10:47:24.178Z,173.38
2024-02-28T10:48:24.194Z,173.64
2024-02-28T10:49:23.114Z,174.25
2024-02-28T10:50:24.127Z,173.59
2024-02-28T10:51:23.148Z,174.31
2024-02-28T10:52:23.159Z,173.80
2024-02-28T10:53:23.137Z,174.77
2024-02-28T10:54:23.184Z,172.10
2024-02-28T10:55:23.172Z,170.36
2024-02-28T10:56:23.162Z,170.12
2024-02-28T10:57:23.205Z,168.45
2024-02-28T10:58:23.137Z,169.75
2024-02-28T10:59:23.128Z,167.90
2024-02-28T11:00:23.194Z,168.89
2024-02-28T11:01:23.498Z,168.95
2024-02-28T11:02:23.158Z,168.21
2024-02-28T11:03:24.839Z,164.01
2024-02-28T11:04:23.171Z,165.88
2024-02-28T11:05:23.244Z,165.84
2024-02-28T11:06:23.440Z,164.61
2024-02-28T11:07:23.190Z,167.38
2024-02-28T11:08:23.161Z,167.04
2024-02-28T11:09:23.193Z,164.01
2024-02-28T11:10:23.154Z,161.38
2024-02-28T11:11:23.301Z,164.69
2024-02-28T11:12:23.194Z,162.19
2024-02-28T11:13:23.210Z,159.68
2024-02-28T11:14:23.201Z,162.77
2024-02-28T11:15:23.257Z,159.45
2024-02-28T11:16:23.156Z,160.57
2024-02-28T11:17:23.157Z,161.01
2024-02-28T11:18:23.220Z,160.06
2024-02-28T11:19:23.187Z,157.94
2024-02-28T11:20:23.157Z,157.31
2024-02-28T11:21:23.211Z,157.36
2024-02-28T11:22:23.216Z,156.78
2024-02-28T11:23:23.211Z,154.80
2024-02-28T11:24:23.191Z,154.64
2024-02-28T11:25:23.350Z,155.14
2024-02-28T11:26:23.192Z,154.54
2024-02-28T11:27:23.233Z,152.86
2024-02-28T11:28:23.190Z,153.73
2024-02-28T11:29:23.194Z,150.47
2024-02-28T11:30:23.270Z,154.77
2024-02-28T11:31:23.201Z,150.99
2024-02-28T11:32:23.229Z,150.11
2024-02-28T11:33:23.268Z,151.14
2024-02-28T11:34:23.215Z,151.38
2024-02-28T11:35:23.192Z,149.94
2024-02-28T11:36:23.232Z,150.33
2024-02-28T11:37:23.258Z,149.10
2024-02-28T11:38:23.196Z,150.86
2024-02-28T11:39:23.212Z,147.78
2024-02-28T11:40:23.224Z,147.36
2024-02-28T11:41:23.221Z,148.86
2024-02-28T11:42:23.288Z,149.55
2024-02-28T11:43:23.416Z,145.80
2024-02-28T11:44:23.208Z,146.71
2024-02-28T11:45:23.329Z,146.79
2024-02-28T11:46:23.208Z,146.49
2024-02-28T11:47:23.255Z,144.71
2024-02-28T11:48:23.231Z,146.11
2024-02-28T11:49:23.241Z,144.94
2024-02-28T11:50:23.232Z,144.01
2024-02-28T11:51:23.288Z,144.24
2024-02-28T11:52:23.200Z,144.41
2024-02-28T11:53:23.223Z,143.56
2024-02-28T11:54:23.283Z,143.53
2024-02-28T11:55:23.219Z,141.10
2024-02-28T11:56:23.238Z,141.05
2024-02-28T11:57:23.263Z,142.65
2024-02-28T11:58:23.228Z,141.64
2024-02-28T11:59:23.228Z,140.28
2024-02-28T12:00:23.268Z,141.67
2024-02-28T12:01:23.347Z,140.88
2024-02-28T12:02:23.421Z,140.14
2024-02-28T12:03:23.263Z,140.09
2024-02-28T12:04:23.260Z,140.29
2024-02-28T12:05:23.242Z,139.28
2024-02-28T12:06:23.287Z,140.16
2024-02-28T12:07:23.256Z,138.41
2024-02-28T12:08:25.427Z,137.39
2024-02-28T12:09:28.166Z,137.53
2024-02-28T12:10:24.331Z,137.75
2024-02-28T12:11:23.263Z,138.25
2024-02-28T12:12:23.275Z,137.69
2024-02-28T12:13:23.270Z,137.89
2024-02-28T12:14:23.255Z,138.25
2024-02-28T12:15:23.303Z,138.06
2024-02-28T12:16:23.277Z,137.44
2024-02-28T12:17:23.267Z,136.41
2024-02-28T12:18:23.312Z,135.99
2024-02-28T12:19:23.287Z,134.70
2024-02-28T12:20:23.299Z,134.95
2024-02-28T12:21:23.327Z,132.39
2024-02-28T12:22:23.326Z,133.96
2024-02-28T12:23:23.289Z,134.47
2024-02-28T12:24:23.303Z,133.16
2024-02-28T12:25:23.274Z,133.47
2024-02-28T12:26:23.305Z,132.50
2024-02-28T12:27:23.303Z,132.45
2024-02-28T12:28:23.285Z,132.62
2024-02-28T12:29:23.270Z,132.98
2024-02-28T12:30:23.339Z,132.99
2024-02-28T12:31:23.295Z,129.35
2024-02-28T12:32:23.332Z,130.73
2024-02-28T12:33:23.404Z,131.31
2024-02-28T12:34:23.382Z,130.98
2024-02-28T12:35:23.477Z,130.06
2024-02-28T12:36:23.468Z,129.55
2024-02-28T12:37:23.950Z,130.14
2024-02-28T12:38:23.499Z,129.64
2024-02-28T12:39:23.580Z,129.38
2024-02-28T12:40:23.594Z,129.27
2024-02-28T12:41:23.704Z,127.32
2024-02-28T12:42:23.678Z,127.56
2024-02-28T12:43:23.676Z,127.56
2024-02-28T12:44:23.722Z,126.62
2024-02-28T12:45:23.819Z,126.17